Time;durP1;ratioP1;P1;durP2;ratioP2;P2;SDS_P1;SDS_P2;PMS_P1;PMS_P2;Temp;Humidity;BMP_temperature;BMP_pressure;BME280_temperature;BME280_humidity;BME280_pressure;Samples;Min_cycle;Max_cycle;Signal;HPM_P1;HPM_P2
2023/01/25 00:00:30;;;;;;;32.20;18.90;;;2.10;99.90;;;;;;5016224;28;20767;-68
2023/01/25 00:02:57;;;;;;;28.13;17.23;;;2.10;99.90;;;;;;5015168;28;20220;-68
2023/01/25 00:05:24;;;;;;;30.43;18.30;;;2.20;99.90;;;;;;5016034;28;20797;-67
2023/01/25 00:07:50;;;;;;;34.57;18.80;;;2.10;99.90;;;;;;5000777;28;20321;-67
2023/01/25 00:10:18;;;;;;;29.03;18.40;;;2.20;99.90;;;;;;5011233;28;20251;-67
2023/01/25 00:12:44;;;;;;;35.70;18.67;;;2.20;99.90;;;;;;5011444;28;20208;-67
2023/01/25 00:15:11;;;;;;;35.10;19.23;;;2.20;99.90;;;;;;5013401;28;20223;-67
2023/01/25 00:17:38;;;;;;;32.03;19.30;;;2.20;99.90;;;;;;5009042;28;20749;-68
2023/01/25 00:20:05;;;;;;;33.23;19.17;;;2.20;99.90;;;;;;5011779;28;20605;-67
2023/01/25 00:22:32;;;;;;;32.77;19.03;;;2.20;99.90;;;;;;5013208;28;20207;-67
2023/01/25 00:24:59;;;;;;;31.70;18.23;;;2.20;99.90;;;;;;5013054;28;20212;-68
2023/01/25 00:27:26;;;;;;;33.63;19.33;;;2.20;99.90;;;;;;5012462;28;20235;-68
2023/01/25 00:29:53;;;;;;;30.60;18.90;;;2.10;99.90;;;;;;5011306;28;20227;-67
2023/01/25 00:32:19;;;;;;;31.47;18.93;;;2.10;99.90;;;;;;4993663;28;20777;-67
2023/01/25 00:34:50;;;;;;;31.30;19.17;;;2.10;99.90;;;;;;5012853;28;20215;-67
2023/01/25 00:37:20;;;;;;;33.47;19.13;;;2.10;99.90;;;;;;4996379;28;20613;-67
2023/01/25 00:39:47;;;;;;;32.70;18.67;;;2.10;99.90;;;;;;4995093;28;20236;-68
2023/01/25 00:42:15;;;;;;;31.33;18.57;;;2.10;99.90;;;;;;5010594;28;20220;-68
2023/01/25 00:44:42;;;;;;;33.17;18.97;;;2.10;99.90;;;;;;5011877;28;20204;-67
2023/01/25 00:47:10;;;;;;;29.80;18.00;;;2.10;99.90;;;;;;5010913;28;20244;-68
2023/01/25 00:49:38;;;;;;;29.57;18.07;;;2.00;99.90;;;;;;5012487;28;20243;-67
2023/01/25 00:52:06;;;;;;;32.00;19.07;;;2.00;99.90;;;;;;5012559;28;20295;-67
2023/01/25 00:54:33;;;;;;;34.30;18.37;;;2.00;99.90;;;;;;5011121;28;20214;-67
2023/01/25 00:57:00;;;;;;;32.17;18.50;;;1.90;99.90;;;;;;5011669;28;20197;-68
2023/01/25 00:59:27;;;;;;;32.90;18.33;;;1.90;99.90;;;;;;5001178;28;20326;-68
2023/01/25 01:01:54;;;;;;;34.73;19.27;;;1.90;99.90;;;;;;5011975;28;20220;-67
2023/01/25 01:04:24;;;;;;;32.33;18.50;;;1.90;99.90;;;;;;5012475;28;20294;-67
2023/01/25 01:06:52;;;;;;;34.27;18.23;;;1.90;99.90;;;;;;5012673;28;20307;-67
2023/01/25 01:09:20;;;;;;;34.50;19.43;;;1.90;99.90;;;;;;5010935;28;20212;-68
2023/01/25 01:11:47;;;;;;;31.33;18.13;;;1.90;99.90;;;;;;5011974;28;20298;-68
2023/01/25 01:14:14;;;;;;;36.20;20.07;;;1.90;99.90;;;;;;5011195;28;20296;-67
2023/01/25 01:16:41;;;;;;;34.47;19.20;;;1.90;99.90;;;;;;5010235;28;20312;-68
2023/01/25 01:19:08;;;;;;;35.37;19.40;;;1.90;99.90;;;;;;5012148;28;20225;-67
2023/01/25 01:21:35;;;;;;;36.23;19.53;;;1.90;99.90;;;;;;5014301;28;20239;-68
2023/01/25 01:24:02;;;;;;;34.27;19.30;;;1.90;99.90;;;;;;4998940;28;20204;-68
2023/01/25 01:26:28;;;;;;;34.57;19.77;;;1.90;99.90;;;;;;5009885;28;20226;-68
2023/01/25 01:28:57;;;;;;;34.50;19.40;;;1.80;99.90;;;;;;5010931;28;20260;-68
2023/01/25 01:31:24;;;;;;;30.80;18.37;;;1.70;99.90;;;;;;5011515;28;20800;-67
2023/01/25 01:33:53;;;;;;;34.43;19.10;;;1.80;99.90;;;;;;5010556;28;20670;-68
2023/01/25 01:36:22;;;;;;;33.97;20.27;;;1.70;99.90;;;;;;5010310;28;20295;-68
2023/01/25 01:38:49;;;;;;;34.83;19.77;;;1.70;99.90;;;;;;5013066;28;20643;-68
2023/01/25 01:41:16;;;;;;;34.63;19.90;;;1.80;99.90;;;;;;5012356;28;20231;-67
2023/01/25 01:43:43;;;;;;;38.83;21.20;;;1.70;99.90;;;;;;4993439;28;20217;-68
2023/01/25 01:46:28;;;;;;;36.73;20.13;;;1.60;99.90;;;;;;5011441;28;20208;-68
2023/01/25 01:49:16;;;;;;;37.80;20.20;;;1.60;99.90;;;;;;5011169;28;20566;-68
2023/01/25 01:51:54;;;;;;;38.73;20.27;;;1.60;99.90;;;;;;5010784;28;20201;-68
2023/01/25 01:54:50;;;;;;;31.53;18.23;;;1.70;99.90;;;;;;5011105;28;20675;-68
2023/01/25 01:57:24;;;;;;;35.57;19.93;;;1.70;99.90;;;;;;4991281;28;20307;-68
2023/01/25 02:00:12;;;;;;;38.73;21.77;;;1.70;99.90;;;;;;5010888;28;20239;-67
2023/01/25 02:02:40;;;;;;;39.60;21.97;;;1.80;99.90;;;;;;5008163;28;20315;-67
2023/01/25 02:05:14;;;;;;;36.33;20.07;;;1.80;99.90;;;;;;5011063;28;20208;-67
2023/01/25 02:07:42;;;;;;;39.73;20.37;;;1.80;99.90;;;;;;5008703;28;20206;-68
2023/01/25 02:10:11;;;;;;;36.03;20.37;;;1.80;99.90;;;;;;5010409;28;20676;-68
2023/01/25 02:12:40;;;;;;;34.60;20.43;;;1.80;99.90;;;;;;5009721;28;20691;-68
2023/01/25 02:15:07;;;;;;;36.97;20.87;;;1.80;99.90;;;;;;5008155;28;20218;-67
2023/01/25 02:17:37;;;;;;;33.60;19.77;;;1.80;99.90;;;;;;5009684;28;20216;-68
2023/01/25 02:20:16;;;;;;;39.03;20.67;;;1.80;99.90;;;;;;4995200;28;20292;-67
2023/01/25 02:22:55;;;;;;;38.70;21.57;;;1.80;99.90;;;;;;5009552;28;20211;-68
2023/01/25 02:25:22;;;;;;;38.70;20.70;;;1.80;99.90;;;;;;5007890;28;20699;-68
2023/01/25 02:27:54;;;;;;;40.17;20.03;;;1.80;99.90;;;;;;5012095;28;20291;-68
2023/01/25 02:30:22;;;;;;;40.30;21.90;;;1.80;99.90;;;;;;4991960;28;20306;-67
2023/01/25 02:32:49;;;;;;;38.60;19.93;;;1.80;99.90;;;;;;5009102;28;20220;-68
2023/01/25 02:35:35;;;;;;;39.30;21.17;;;1.80;99.90;;;;;;5008346;28;20673;-68
2023/01/25 02:38:01;;;;;;;39.67;20.93;;;1.90;99.90;;;;;;5010315;28;20232;-67
2023/01/25 02:40:31;;;;;;;38.97;20.97;;;1.90;99.90;;;;;;5007802;28;20307;-68
2023/01/25 02:42:58;;;;;;;40.20;20.83;;;1.90;99.90;;;;;;5009969;28;20206;-68
2023/01/25 02:45:29;;;;;;;39.77;20.93;;;1.90;99.90;;;;;;5010314;28;20208;-67
2023/01/25 02:47:56;;;;;;;43.10;21.83;;;1.90;99.90;;;;;;5009877;28;20264;-68
2023/01/25 02:50:22;;;;;;;43.23;22.13;;;1.90;99.90;;;;;;5009925;28;20298;-68
2023/01/25 02:52:49;;;;;;;39.97;21.87;;;1.90;99.90;;;;;;5010269;28;20197;-68
2023/01/25 02:55:16;;;;;;;39.03;20.60;;;1.90;99.90;;;;;;5010503;28;20638;-68
2023/01/25 02:57:42;;;;;;;37.57;20.77;;;1.80;99.90;;;;;;4994569;28;20226;-68
2023/01/25 03:00:10;;;;;;;39.00;20.27;;;1.80;99.90;;;;;;5009107;28;20628;-68
2023/01/25 03:02:36;;;;;;;39.10;19.97;;;1.80;99.90;;;;;;5010115;28;21092;-68
2023/01/25 03:05:04;;;;;;;41.47;21.73;;;1.70;99.90;;;;;;4992708;28;20211;-68
2023/01/25 03:07:31;;;;;;;45.40;22.37;;;1.70;99.90;;;;;;5009800;28;20203;-68
2023/01/25 03:09:57;;;;;;;42.80;21.33;;;1.70;99.90;;;;;;5010226;28;20214;-67
2023/01/25 03:12:24;;;;;;;40.30;21.47;;;1.70;99.90;;;;;;4992050;28;20239;-67
2023/01/25 03:14:51;;;;;;;42.43;22.90;;;1.70;99.90;;;;;;5010366;28;20211;-68
2023/01/25 03:17:17;;;;;;;44.10;22.17;;;1.60;99.90;;;;;;5009758;28;20216;-68
2023/01/25 03:19:44;;;;;;;42.73;22.27;;;1.60;99.90;;;;;;5009927;28;20230;-67
2023/01/25 03:22:11;;;;;;;40.00;20.57;;;1.60;99.90;;;;;;5010856;28;20243;-67
2023/01/25 03:24:37;;;;;;;39.47;20.30;;;1.60;99.90;;;;;;5009923;28;20655;-68
2023/01/25 03:27:10;;;;;;;46.83;22.83;;;1.70;99.90;;;;;;5009616;28;20211;-68
2023/01/25 03:29:37;;;;;;;42.13;21.50;;;1.70;99.90;;;;;;4977206;28;20563;-68
2023/01/25 03:32:04;;;;;;;42.20;21.70;;;1.70;99.90;;;;;;4992086;28;20713;-68
2023/01/25 03:34:31;;;;;;;43.97;22.20;;;1.70;99.90;;;;;;5010074;28;20211;-68
2023/01/25 03:36:57;;;;;;;42.57;22.37;;;1.70;99.90;;;;;;4992272;28;20208;-68
2023/01/25 03:39:24;;;;;;;43.30;22.87;;;1.70;99.90;;;;;;5009637;28;20235;-69
2023/01/25 03:41:51;;;;;;;43.63;22.57;;;1.80;99.90;;;;;;5010343;28;20209;-68
2023/01/25 03:44:17;;;;;;;45.83;22.67;;;1.80;99.90;;;;;;4995316;28;20302;-67
2023/01/25 03:46:44;;;;;;;43.30;22.03;;;1.70;99.90;;;;;;5012727;28;20303;-67
2023/01/25 03:49:11;;;;;;;44.73;22.87;;;1.70;99.90;;;;;;5013523;28;20216;-67
2023/01/25 03:51:38;;;;;;;45.90;22.83;;;1.80;99.90;;;;;;4996314;28;20209;-68
2023/01/25 03:54:07;;;;;;;46.73;23.93;;;1.80;99.90;;;;;;5013684;28;20216;-68
2023/01/25 03:56:33;;;;;;;48.63;24.33;;;1.80;99.90;;;;;;5008544;28;20661;-67
2023/01/25 03:59:00;;;;;;;43.67;22.50;;;1.80;99.90;;;;;;5012905;28;20227;-67
2023/01/25 04:01:27;;;;;;;49.73;24.50;;;1.70;99.90;;;;;;5012848;28;20668;-68
2023/01/25 04:03:53;;;;;;;46.67;24.03;;;1.70;99.90;;;;;;5013104;28;20208;-68
2023/01/25 04:06:20;;;;;;;48.80;24.43;;;1.70;99.90;;;;;;5012751;28;20211;-68
2023/01/25 04:08:48;;;;;;;46.00;23.20;;;1.70;99.90;;;;;;5013079;28;20742;-68
2023/01/25 04:11:15;;;;;;;47.40;24.23;;;1.70;99.90;;;;;;5012394;28;20323;-67
2023/01/25 04:13:41;;;;;;;45.30;24.00;;;1.60;99.90;;;;;;5012805;28;20244;-68
2023/01/25 04:16:10;;;;;;;50.27;25.10;;;1.70;99.90;;;;;;5011401;28;20200;-68
2023/01/25 04:18:38;;;;;;;48.47;24.33;;;1.60;99.90;;;;;;5009614;28;20243;-67
2023/01/25 04:21:05;;;;;;;47.10;22.93;;;1.60;99.90;;;;;;5012419;28;20732;-68
2023/01/25 04:23:32;;;;;;;51.70;24.70;;;1.60;99.90;;;;;;4995557;28;20603;-67
2023/01/25 04:26:05;;;;;;;46.00;22.63;;;1.60;99.90;;;;;;4994661;28;20298;-68
2023/01/25 04:28:33;;;;;;;46.97;22.57;;;1.60;99.90;;;;;;5009662;28;20283;-67
2023/01/25 04:31:02;;;;;;;50.47;25.03;;;1.60;99.90;;;;;;5012538;28;20204;-68
2023/01/25 04:33:29;;;;;;;46.87;23.87;;;1.60;99.90;;;;;;5012937;28;20561;-68
2023/01/25 04:35:56;;;;;;;50.70;24.47;;;1.60;99.90;;;;;;5012601;28;20289;-68
2023/01/25 04:38:24;;;;;;;47.90;23.93;;;1.60;99.90;;;;;;5011773;28;20209;-67
2023/01/25 04:40:51;;;;;;;48.70;23.47;;;1.50;99.90;;;;;;5011753;28;20755;-68
2023/01/25 04:43:19;;;;;;;50.03;25.23;;;1.50;99.90;;;;;;5011477;28;20608;-68
2023/01/25 04:45:46;;;;;;;48.93;23.47;;;1.50;99.90;;;;;;5012879;28;20298;-68
2023/01/25 04:48:14;;;;;;;50.87;24.27;;;1.50;99.90;;;;;;5010080;28;20780;-67
2023/01/25 04:50:41;;;;;;;49.57;24.93;;;1.50;99.90;;;;;;5012281;28;20294;-68
2023/01/25 04:53:10;;;;;;;51.27;25.17;;;1.40;99.90;;;;;;4999603;28;20204;-67
2023/01/25 04:55:36;;;;;;;53.27;26.07;;;1.40;99.90;;;;;;5012089;28;20621;-67
2023/01/25 04:58:03;;;;;;;52.40;25.80;;;1.40;99.90;;;;;;5010989;28;20234;-68
2023/01/25 05:00:31;;;;;;;50.00;23.73;;;1.40;99.90;;;;;;5012111;28;20330;-67
2023/01/25 05:02:58;;;;;;;49.47;24.97;;;1.40;99.90;;;;;;5012262;28;20246;-68
2023/01/25 05:05:24;;;;;;;48.90;24.63;;;1.40;99.90;;;;;;5011802;28;20204;-67
2023/01/25 05:07:51;;;;;;;49.50;23.47;;;1.40;99.90;;;;;;5011390;28;20243;-68
2023/01/25 05:10:18;;;;;;;47.90;24.57;;;1.40;99.90;;;;;;5010335;28;20213;-68
2023/01/25 05:12:45;;;;;;;55.97;26.03;;;1.40;99.90;;;;;;5011916;28;20207;-67
2023/01/25 05:15:11;;;;;;;54.07;26.07;;;1.40;99.90;;;;;;5011172;28;20576;-67
2023/01/25 05:17:38;;;;;;;53.07;25.40;;;1.30;99.90;;;;;;5011548;28;20251;-68
2023/01/25 05:20:05;;;;;;;55.53;27.33;;;1.40;99.90;;;;;;5011076;28;20231;-67
2023/01/25 05:22:32;;;;;;;52.17;24.37;;;1.30;99.90;;;;;;5009956;28;20207;-67
2023/01/25 05:25:00;;;;;;;58.37;26.37;;;1.30;99.90;;;;;;5011935;28;20212;-68
2023/01/25 05:27:27;;;;;;;48.90;24.07;;;1.30;99.90;;;;;;4993904;28;20210;-68
2023/01/25 05:29:54;;;;;;;52.03;25.10;;;1.30;99.90;;;;;;5011864;28;20202;-68
2023/01/25 05:32:23;;;;;;;54.17;25.73;;;1.30;99.90;;;;;;5011148;28;20704;-68
2023/01/25 05:34:50;;;;;;;53.60;26.67;;;1.30;99.90;;;;;;5010814;28;20208;-67
2023/01/25 05:37:19;;;;;;;54.80;25.60;;;1.20;99.90;;;;;;5011684;28;20208;-67
2023/01/25 05:39:46;;;;;;;57.57;26.97;;;1.20;99.90;;;;;;5010960;28;20306;-67
2023/01/25 05:42:15;;;;;;;51.40;26.00;;;1.10;99.90;;;;;;5009487;28;20336;-67
2023/01/25 05:44:42;;;;;;;50.30;24.37;;;1.10;99.90;;;;;;5011410;28;20208;-67
2023/01/25 05:47:14;;;;;;;54.40;25.37;;;1.10;99.90;;;;;;4991068;28;20254;-67
2023/01/25 05:49:41;;;;;;;48.90;23.30;;;1.20;99.90;;;;;;5011497;28;20581;-67
2023/01/25 05:52:16;;;;;;;52.20;25.00;;;1.20;99.90;;;;;;5009912;28;20212;-67
2023/01/25 05:54:42;;;;;;;54.03;24.83;;;1.20;99.90;;;;;;5011713;28;20623;-67
2023/01/25 05:57:09;;;;;;;54.37;25.93;;;1.20;99.90;;;;;;5010045;28;20203;-66
2023/01/25 05:59:36;;;;;;;53.10;25.03;;;1.30;99.90;;;;;;5009573;28;20729;-68
2023/01/25 06:02:03;;;;;;;54.00;26.70;;;1.30;99.90;;;;;;5007155;28;20329;-67
2023/01/25 06:04:29;;;;;;;58.43;26.17;;;1.30;99.90;;;;;;5007875;28;20246;-66
2023/01/25 06:06:56;;;;;;;51.57;25.73;;;1.30;99.90;;;;;;5010919;28;20206;-67
2023/01/25 06:09:23;;;;;;;48.57;23.87;;;1.30;99.90;;;;;;4998015;28;20208;-67
2023/01/25 06:11:50;;;;;;;51.03;25.13;;;1.30;99.90;;;;;;5009253;28;20962;-67
2023/01/25 06:14:16;;;;;;;56.50;26.63;;;1.30;99.90;;;;;;5009990;28;20212;-66
2023/01/25 06:16:43;;;;;;;54.73;25.70;;;1.20;99.90;;;;;;5010849;28;20254;-67
2023/01/25 06:19:12;;;;;;;52.40;24.67;;;1.20;99.90;;;;;;5008815;28;20295;-67
2023/01/25 06:21:39;;;;;;;54.80;25.73;;;1.20;99.90;;;;;;5011418;28;20210;-67
2023/01/25 06:24:06;;;;;;;52.07;24.77;;;1.20;99.90;;;;;;5009262;28;20209;-67
2023/01/25 06:26:33;;;;;;;50.80;25.20;;;1.20;99.90;;;;;;5009798;28;20204;-67
2023/01/25 06:29:00;;;;;;;52.43;25.13;;;1.10;99.90;;;;;;5010723;28;20200;-66
2023/01/25 06:31:26;;;;;;;48.53;24.50;;;1.10;99.90;;;;;;5010128;28;20749;-67
2023/01/25 06:33:53;;;;;;;53.97;25.77;;;1.10;99.90;;;;;;5010350;28;20314;-67
2023/01/25 06:36:21;;;;;;;53.20;26.03;;;1.10;99.90;;;;;;5009445;28;20253;-66
2023/01/25 06:38:49;;;;;;;52.10;26.03;;;1.10;99.90;;;;;;5009005;28;20204;-67
2023/01/25 06:41:17;;;;;;;49.07;24.17;;;1.10;99.90;;;;;;5010476;28;20220;-68
2023/01/25 06:43:44;;;;;;;48.07;23.63;;;1.10;99.90;;;;;;4990654;28;20955;-66
2023/01/25 06:46:11;;;;;;;48.73;22.90;;;1.10;99.90;;;;;;5010209;28;20572;-66
2023/01/25 06:48:39;;;;;;;49.50;24.27;;;1.10;99.90;;;;;;5010259;28;20218;-67
2023/01/25 06:51:08;;;;;;;51.70;24.67;;;1.00;99.90;;;;;;5010547;28;20239;-68
2023/01/25 06:53:38;;;;;;;52.00;23.47;;;1.00;99.90;;;;;;5010262;28;20702;-66
2023/01/25 06:56:10;;;;;;;52.43;24.37;;;0.90;99.90;;;;;;5010126;28;20659;-69
2023/01/25 06:58:38;;;;;;;50.97;25.10;;;1.00;99.90;;;;;;5001551;28;20203;-68
2023/01/25 07:01:18;;;;;;;47.93;23.47;;;1.00;99.90;;;;;;5008925;28;20234;-67
2023/01/25 07:03:51;;;;;;;49.43;22.73;;;1.00;99.90;;;;;;4994199;28;20246;-67
2023/01/25 07:06:18;;;;;;;50.83;24.20;;;1.00;99.90;;;;;;5006381;28;20215;-67
2023/01/25 07:08:45;;;;;;;50.40;24.97;;;1.00;99.90;;;;;;5008564;28;20573;-67
2023/01/25 07:11:17;;;;;;;53.03;24.50;;;1.00;99.90;;;;;;5004851;28;20322;-68
2023/01/25 07:13:45;;;;;;;51.23;25.00;;;1.00;99.90;;;;;;5006039;28;20674;-69
2023/01/25 07:16:15;;;;;;;48.70;24.47;;;1.00;99.90;;;;;;4989656;28;20230;-66
2023/01/25 07:18:42;;;;;;;51.03;23.87;;;1.00;99.90;;;;;;5012463;28;20241;-68
2023/01/25 07:21:14;;;;;;;49.53;23.10;;;1.00;99.90;;;;;;4985235;28;20231;-68
2023/01/25 07:23:41;;;;;;;55.37;25.13;;;1.00;99.90;;;;;;5006324;28;20301;-68
2023/01/25 07:26:20;;;;;;;46.30;23.00;;;0.90;99.90;;;;;;5016141;28;20213;-67
2023/01/25 07:28:48;;;;;;;54.47;24.20;;;0.80;99.90;;;;;;4997263;28;20202;-67
2023/01/25 07:31:16;;;;;;;53.20;24.80;;;0.70;99.90;;;;;;5011836;28;20262;-67
2023/01/25 07:33:43;;;;;;;56.70;25.03;;;0.70;99.90;;;;;;5012005;28;20262;-68
2023/01/25 07:36:10;;;;;;;50.43;23.83;;;0.60;99.90;;;;;;5010614;28;20222;-66
2023/01/25 07:38:37;;;;;;;51.43;24.97;;;0.60;99.90;;;;;;4993166;28;20286;-68
2023/01/25 07:41:04;;;;;;;52.50;24.13;;;0.60;99.90;;;;;;5011229;28;20226;-67
2023/01/25 07:43:31;;;;;;;49.20;23.97;;;0.60;99.90;;;;;;5013304;28;21043;-66
2023/01/25 07:46:03;;;;;;;50.67;24.13;;;0.70;99.90;;;;;;5003348;28;20680;-66
2023/01/25 07:48:31;;;;;;;48.30;23.33;;;0.70;99.90;;;;;;5004899;28;20254;-67
2023/01/25 07:51:10;;;;;;;54.93;24.73;;;0.70;99.90;;;;;;5006556;28;20572;-70
2023/01/25 07:53:38;;;;;;;49.33;24.47;;;0.70;99.90;;;;;;5004871;28;20203;-66
2023/01/25 07:56:06;;;;;;;47.10;23.00;;;0.70;99.90;;;;;;5006435;28;20214;-66
2023/01/25 07:58:33;;;;;;;54.87;24.17;;;0.70;99.90;;;;;;5011768;28;20294;-68
2023/01/25 08:01:08;;;;;;;50.47;23.07;;;0.70;99.90;;;;;;5008140;28;20231;-66
2023/01/25 08:03:34;;;;;;;50.83;24.57;;;0.70;99.90;;;;;;5008981;28;20218;-68
2023/01/25 08:06:04;;;;;;;53.87;24.83;;;0.70;99.90;;;;;;5007505;28;20691;-68
2023/01/25 08:08:33;;;;;;;56.00;25.60;;;0.80;99.90;;;;;;5008044;28;20549;-68
2023/01/25 08:11:11;;;;;;;55.33;25.67;;;0.70;99.90;;;;;;5010340;28;20325;-69
2023/01/25 08:13:40;;;;;;;53.57;24.60;;;0.80;99.90;;;;;;5008428;28;20208;-68
2023/01/25 08:16:06;;;;;;;58.43;25.73;;;0.70;99.90;;;;;;5006108;28;20196;-68
2023/01/25 08:18:33;;;;;;;54.97;25.77;;;0.60;99.90;;;;;;5005977;28;20257;-67
2023/01/25 08:21:02;;;;;;;55.03;25.63;;;0.60;99.90;;;;;;5009858;28;20237;-68
2023/01/25 08:23:29;;;;;;;53.80;25.57;;;0.60;99.90;;;;;;5008425;28;20198;-68
2023/01/25 08:26:04;;;;;;;54.57;25.37;;;0.50;99.90;;;;;;5006367;28;20245;-68
2023/01/25 08:28:34;;;;;;;58.27;25.33;;;0.60;99.90;;;;;;5005663;28;20206;-68
2023/01/25 08:31:09;;;;;;;55.40;26.13;;;0.60;99.90;;;;;;5009902;28;20301;-68
2023/01/25 08:33:37;;;;;;;57.87;27.00;;;0.70;99.90;;;;;;4993048;28;20313;-68
2023/01/25 08:36:04;;;;;;;56.10;26.87;;;0.70;99.90;;;;;;5011559;28;20610;-68
2023/01/25 08:38:31;;;;;;;57.03;27.47;;;0.70;99.90;;;;;;5012782;28;20306;-68
2023/01/25 08:41:10;;;;;;;51.93;25.00;;;0.70;99.90;;;;;;5011038;28;20230;-69
2023/01/25 08:43:37;;;;;;;51.90;23.43;;;0.70;99.90;;;;;;5011517;28;20213;-69
2023/01/25 08:46:04;;;;;;;54.43;25.63;;;0.70;99.90;;;;;;5012552;28;20241;-68
2023/01/25 08:48:31;;;;;;;57.20;25.60;;;0.70;99.90;;;;;;4996422;28;20314;-68
2023/01/25 08:50:59;;;;;;;53.67;25.63;;;0.70;99.90;;;;;;5011444;28;20198;-68
2023/01/25 08:53:30;;;;;;;55.70;24.77;;;0.70;99.90;;;;;;5011270;28;20211;-68
2023/01/25 08:56:14;;;;;;;54.13;24.70;;;0.80;99.90;;;;;;5012277;28;20250;-68
2023/01/25 08:58:45;;;;;;;54.93;24.43;;;0.80;99.90;;;;;;5008588;28;20269;-68
2023/01/25 09:01:15;;;;;;;56.37;25.60;;;0.80;99.90;;;;;;5010535;28;20736;-68
2023/01/25 09:03:43;;;;;;;54.47;26.10;;;0.90;99.90;;;;;;5010107;28;20242;-68
2023/01/25 09:06:11;;;;;;;56.50;25.67;;;0.90;99.90;;;;;;5010335;28;20215;-68
2023/01/25 09:08:38;;;;;;;60.13;27.07;;;0.90;99.90;;;;;;5012420;28;20244;-68
2023/01/25 09:11:11;;;;;;;55.27;25.07;;;1.00;99.90;;;;;;5011910;28;20333;-69
2023/01/25 09:13:38;;;;;;;56.40;26.27;;;1.00;99.90;;;;;;5011262;28;20221;-69
2023/01/25 09:16:08;;;;;;;57.87;25.77;;;1.00;99.90;;;;;;5011252;28;20195;-69
2023/01/25 09:18:36;;;;;;;60.30;26.77;;;1.00;99.90;;;;;;5011319;28;20212;-68
2023/01/25 09:21:08;;;;;;;55.07;25.00;;;1.00;99.90;;;;;;5008165;28;20227;-67
2023/01/25 09:23:35;;;;;;;57.30;26.13;;;1.00;99.90;;;;;;5008640;28;20199;-68
2023/01/25 09:26:17;;;;;;;56.20;25.07;;;1.00;99.90;;;;;;5010951;28;20207;-67
2023/01/25 09:28:50;;;;;;;58.87;26.20;;;1.00;99.90;;;;;;5010628;28;20294;-69
2023/01/25 09:31:17;;;;;;;63.23;27.73;;;1.00;99.90;;;;;;5010559;28;20291;-69
2023/01/25 09:33:52;;;;;;;60.10;26.97;;;1.00;99.90;;;;;;5008792;28;20202;-69
2023/01/25 09:36:20;;;;;;;60.13;26.47;;;1.00;99.90;;;;;;5011504;28;20213;-69
2023/01/25 09:38:47;;;;;;;64.40;28.57;;;1.10;99.90;;;;;;5008334;28;20256;-68
2023/01/25 09:41:35;;;;;;;55.37;26.57;;;1.00;99.90;;;;;;4993568;28;20219;-68
2023/01/25 09:44:23;;;;;;;61.50;28.67;;;1.10;99.90;;;;;;5010423;28;20234;-67
2023/01/25 09:46:53;;;;;;;60.87;26.87;;;1.00;99.90;;;;;;5010983;28;20333;-69
2023/01/25 09:49:59;;;;;;;59.63;27.90;;;1.00;99.90;;;;;;4995824;28;20565;-69
2023/01/25 09:52:56;;;;;;;67.07;28.87;;;1.00;99.90;;;;;;5011512;28;20210;-68
2023/01/25 09:55:26;;;;;;;61.87;27.30;;;1.00;99.90;;;;;;5010666;28;20302;-67
2023/01/25 09:57:55;;;;;;;64.93;27.60;;;1.00;99.90;;;;;;5011113;28;20225;-67
2023/01/25 10:00:28;;;;;;;58.43;25.73;;;1.00;99.90;;;;;;5011497;28;20441;-69
2023/01/25 10:03:10;;;;;;;63.20;26.60;;;1.00;99.90;;;;;;5006381;28;20648;-67
2023/01/25 10:05:43;;;;;;;59.17;26.40;;;1.10;99.90;;;;;;5010180;28;20209;-68
2023/01/25 10:08:30;;;;;;;60.33;26.67;;;1.10;99.90;;;;;;5011163;28;20239;-67
2023/01/25 10:11:20;;;;;;;60.93;27.27;;;1.10;99.90;;;;;;5009965;28;20230;-67
2023/01/25 10:13:48;;;;;;;62.70;26.90;;;1.10;99.90;;;;;;4998146;28;20212;-69
2023/01/25 10:16:24;;;;;;;62.00;27.90;;;1.10;99.90;;;;;;5010801;28;20731;-69
2023/01/25 10:19:06;;;;;;;60.77;26.20;;;1.10;99.90;;;;;;5010329;28;20261;-68
2023/01/25 10:21:39;;;;;;;65.87;28.30;;;1.00;99.90;;;;;;5010615;28;20238;-67
2023/01/25 10:24:20;;;;;;;62.60;28.20;;;1.10;99.90;;;;;;5007834;28;20203;-68
2023/01/25 10:27:07;;;;;;;64.83;29.33;;;1.10;99.90;;;;;;5010657;28;20338;-69
2023/01/25 10:29:36;;;;;;;62.53;26.43;;;1.10;99.90;;;;;;5008431;28;20605;-68
2023/01/25 10:32:26;;;;;;;63.40;27.03;;;1.10;99.90;;;;;;5010630;28;20254;-70
2023/01/25 10:34:56;;;;;;;67.33;28.30;;;1.10;99.90;;;;;;5008285;28;20701;-67
2023/01/25 10:37:32;;;;;;;66.20;28.90;;;1.10;99.90;;;;;;5012641;28;20199;-67
2023/01/25 10:40:34;;;;;;;64.93;29.20;;;1.10;99.90;;;;;;5010007;28;20299;-67
2023/01/25 10:43:11;;;;;;;59.17;26.13;;;1.10;99.90;;;;;;4982765;28;20286;-67
2023/01/25 10:45:38;;;;;;;61.83;27.53;;;1.10;99.90;;;;;;5010170;28;20298;-67
2023/01/25 10:48:14;;;;;;;59.70;26.77;;;1.10;99.90;;;;;;5010480;28;20214;-68
2023/01/25 10:50:47;;;;;;;58.97;26.10;;;1.10;99.90;;;;;;5008779;28;20742;-69
2023/01/25 10:53:23;;;;;;;66.17;27.67;;;1.10;99.90;;;;;;5010323;28;20237;-67
2023/01/25 10:56:09;;;;;;;59.47;27.27;;;1.20;99.90;;;;;;5010469;28;20508;-69
2023/01/25 10:58:36;;;;;;;61.40;26.90;;;1.30;99.90;;;;;;5008318;28;20211;-73
2023/01/25 11:01:12;;;;;;;57.03;25.27;;;1.20;99.90;;;;;;5080513;22;20243;-69
2023/01/25 11:03:43;;;;;;;64.03;27.07;;;1.30;99.90;;;;;;4983347;28;20215;-68
2023/01/25 11:06:10;;;;;;;56.43;26.03;;;1.30;99.90;;;;;;4983875;28;20271;-68
2023/01/25 11:08:41;;;;;;;66.30;28.63;;;1.30;99.90;;;;;;4969347;28;20271;-67
2023/01/25 11:11:14;;;;;;;67.80;28.57;;;1.30;99.90;;;;;;4981027;28;20622;-69
2023/01/25 11:13:41;;;;;;;66.80;28.20;;;1.30;99.90;;;;;;4983050;28;20197;-68
2023/01/25 11:16:37;;;;;;;61.27;28.77;;;1.30;99.90;;;;;;4983851;28;20212;-68
2023/01/25 11:19:29;;;;;;;63.63;27.63;;;1.40;99.90;;;;;;4989118;28;20224;-68
2023/01/25 11:21:58;;;;;;;64.40;28.57;;;1.30;99.90;;;;;;4981557;28;20239;-68
2023/01/25 11:24:28;;;;;;;67.97;27.77;;;1.30;99.90;;;;;;4985352;28;20282;-68
2023/01/25 11:27:23;;;;;;;65.67;29.20;;;1.30;99.90;;;;;;4969022;28;20212;-68
2023/01/25 11:30:11;;;;;;;67.47;28.90;;;1.30;99.90;;;;;;4985205;28;20208;-69
2023/01/25 11:32:39;;;;;;;67.30;29.50;;;1.30;99.90;;;;;;4986681;28;20228;-68
2023/01/25 11:35:20;;;;;;;58.90;27.73;;;1.20;99.90;;;;;;4969015;28;20212;-69
2023/01/25 11:38:14;;;;;;;62.73;27.23;;;1.20;99.90;;;;;;4973694;28;20608;-68
2023/01/25 11:40:45;;;;;;;67.37;28.73;;;1.20;99.90;;;;;;4977715;28;20214;-68
2023/01/25 11:43:43;;;;;;;66.33;29.67;;;1.20;99.90;;;;;;4982990;28;20251;-69
2023/01/25 11:46:43;;;;;;;65.87;29.13;;;1.20;99.90;;;;;;4980436;28;20228;-69
2023/01/25 11:49:32;;;;;;;64.63;28.77;;;1.20;99.90;;;;;;4980709;28;20209;-69
2023/01/25 11:52:32;;;;;;;66.77;28.83;;;1.10;99.90;;;;;;4985014;28;20205;-69
2023/01/25 11:55:29;;;;;;;58.37;26.53;;;1.20;99.90;;;;;;4985064;28;20202;-68
2023/01/25 11:58:23;;;;;;;61.63;27.73;;;1.20;99.90;;;;;;4965962;28;20209;-68
2023/01/25 12:01:11;;;;;;;62.30;29.07;;;1.30;99.90;;;;;;4964751;28;20233;-68
2023/01/25 12:03:52;;;;;;;67.27;28.07;;;1.40;99.90;;;;;;4990559;28;20216;-69
2023/01/25 12:06:37;;;;;;;64.47;28.13;;;1.40;99.90;;;;;;4983659;28;20213;-68
2023/01/25 12:09:18;;;;;;;69.10;30.07;;;1.50;99.90;;;;;;4988369;28;20626;-69
2023/01/25 12:11:54;;;;;;;63.67;28.73;;;1.40;99.90;;;;;;4971983;28;20532;-69
2023/01/25 12:14:23;;;;;;;65.80;27.90;;;1.40;99.90;;;;;;4985161;28;20263;-69
2023/01/25 12:17:10;;;;;;;67.20;29.07;;;1.40;99.90;;;;;;4988206;28;20773;-69
2023/01/25 12:20:05;;;;;;;71.43;30.43;;;1.30;99.90;;;;;;4983968;28;20228;-70
2023/01/25 12:23:11;;;;;;;68.70;30.93;;;1.10;99.90;;;;;;4987627;28;20571;-69
2023/01/25 12:25:43;;;;;;;67.83;27.07;;;1.10;99.90;;;;;;4889435;29;20334;-69
2023/01/25 12:28:16;;;;;;;69.33;29.03;;;1.10;99.90;;;;;;4885499;29;20276;-68
2023/01/25 12:31:15;;;;;;;73.27;29.47;;;1.10;99.90;;;;;;4927694;28;20356;-69
2023/01/25 12:33:52;;;;;;;67.93;28.37;;;1.20;99.90;;;;;;4989700;28;20267;-68
2023/01/25 12:36:44;;;;;;;68.80;29.27;;;1.30;99.90;;;;;;4987695;28;20586;-70
2023/01/25 12:39:26;;;;;;;64.03;27.80;;;1.30;99.90;;;;;;4991287;28;20216;-68
2023/01/25 12:42:03;;;;;;;63.43;27.80;;;1.20;99.90;;;;;;4968871;28;20231;-68
2023/01/25 12:44:35;;;;;;;68.43;29.60;;;1.20;99.90;;;;;;4983322;28;20217;-69
2023/01/25 12:47:28;;;;;;;65.33;27.80;;;1.20;99.90;;;;;;4987493;28;20247;-69
2023/01/25 12:50:03;;;;;;;66.83;28.47;;;1.20;99.90;;;;;;4968507;28;20208;-68
2023/01/25 12:52:33;;;;;;;71.90;29.67;;;1.30;99.90;;;;;;4984251;28;20649;-68
2023/01/25 12:55:02;;;;;;;69.53;30.03;;;1.40;99.90;;;;;;4968971;28;20208;-68
2023/01/25 12:57:35;;;;;;;71.97;29.83;;;1.30;99.90;;;;;;4986163;28;20293;-69